Felixlandia, Brazil
Current Conditions -  °F | °C
As of 10:00 AM on Wednesday 26 Nov 2014 (Local Time) from SBLS Reporting Station
Light Rain Light Rain  
Wind Chill: 70°   Ceiling: 300
Heat Index: 70°   Visibility: 2.8mi
Dew Point: 68°   Wind: 5mph
Humidity: 94%   Direction: 360°N
Pressure: 30.03"   Gusts: NA
Location:  18.76°S, 44.9°W
Report Text: SBLS 261200Z 36004KT 4500 -RA BR BKN003 BKN020 OVC070 21/20 Q1017
Loading
Personal Weather Stations






























Interactive Weather Map New forecast layout! Learn more

10-Day Weather Forecast

Advertisements
Track Severe Weather on mobile